sensor_id;sensor_type;location;lat;lon;timestamp;pressure;altitude;pressure_sealevel;temperature
18161;BMP280;9205;52.032;4.314;2022-09-13T00:14:16;100974.66;;;22.38
18161;BMP280;9205;52.032;4.314;2022-09-13T00:16:43;100982.25;;;22.27
18161;BMP280;9205;52.032;4.314;2022-09-13T00:19:11;100977.63;;;22.20
18161;BMP280;9205;52.032;4.314;2022-09-13T00:21:38;100980.59;;;22.14
18161;BMP280;9205;52.032;4.314;2022-09-13T00:24:08;100974.16;;;22.07
18161;BMP280;9205;52.032;4.314;2022-09-13T00:26:35;100972.72;;;22.03
18161;BMP280;9205;52.032;4.314;2022-09-13T00:29:03;100978.09;;;22.00
18161;BMP280;9205;52.032;4.314;2022-09-13T00:31:32;100978.28;;;21.97
18161;BMP280;9205;52.032;4.314;2022-09-13T00:33:59;100980.25;;;21.94
18161;BMP280;9205;52.032;4.314;2022-09-13T00:36:27;100972.69;;;21.91
18161;BMP280;9205;52.032;4.314;2022-09-13T00:38:54;100978.06;;;21.88
18161;BMP280;9205;52.032;4.314;2022-09-13T00:41:22;100979.09;;;21.85
18161;BMP280;9205;52.032;4.314;2022-09-13T00:43:52;100976.69;;;21.82
18161;BMP280;9205;52.032;4.314;2022-09-13T00:46:28;100986.13;;;21.83
18161;BMP280;9205;52.032;4.314;2022-09-13T00:49:11;100977.66;;;21.81
18161;BMP280;9205;52.032;4.314;2022-09-13T00:51:44;100985.59;;;21.78
18161;BMP280;9205;52.032;4.314;2022-09-13T00:54:16;100984.88;;;21.76
18161;BMP280;9205;52.032;4.314;2022-09-13T00:56:50;100979.91;;;21.73
18161;BMP280;9205;52.032;4.314;2022-09-13T00:59:23;100982.50;;;21.73
18161;BMP280;9205;52.032;4.314;2022-09-13T01:01:55;100985.25;;;21.70
18161;BMP280;9205;52.032;4.314;2022-09-13T01:04:28;100994.06;;;21.68
18161;BMP280;9205;52.032;4.314;2022-09-13T01:07:02;100978.63;;;21.66
18161;BMP280;9205;52.032;4.314;2022-09-13T01:09:31;100976.88;;;21.67
18161;BMP280;9205;52.032;4.314;2022-09-13T01:12:08;100970.78;;;21.68
18161;BMP280;9205;52.032;4.314;2022-09-13T01:14:42;100978.44;;;21.69
18161;BMP280;9205;52.032;4.314;2022-09-13T01:17:10;100969.94;;;21.67
18161;BMP280;9205;52.032;4.314;2022-09-13T01:19:38;100965.81;;;21.65
18161;BMP280;9205;52.032;4.314;2022-09-13T01:25:49;100973.03;;;21.60
18161;BMP280;9205;52.032;4.314;2022-09-13T01:29:03;100971.47;;;21.57
18161;BMP280;9205;52.032;4.314;2022-09-13T01:31:40;100959.47;;;21.56
18161;BMP280;9205;52.032;4.314;2022-09-13T01:34:26;100964.44;;;21.59
18161;BMP280;9205;52.032;4.314;2022-09-13T01:37:26;100967.13;;;21.58
18161;BMP280;9205;52.032;4.314;2022-09-13T01:40:07;100959.47;;;21.56
18161;BMP280;9205;52.032;4.314;2022-09-13T01:42:56;100959.38;;;21.58
18161;BMP280;9205;52.032;4.314;2022-09-13T01:45:39;100951.00;;;21.54
18161;BMP280;9205;52.032;4.314;2022-09-13T01:48:19;100949.28;;;21.53
18161;BMP280;9205;52.032;4.314;2022-09-13T01:50:59;100949.28;;;21.53
18161;BMP280;9205;52.032;4.314;2022-09-13T01:53:38;100945.06;;;21.52
18161;BMP280;9205;52.032;4.314;2022-09-13T01:56:16;100940.81;;;21.51
18161;BMP280;9205;52.032;4.314;2022-09-13T01:58:53;100939.06;;;21.52
18161;BMP280;9205;52.032;4.314;2022-09-13T02:01:28;100937.28;;;21.52
18161;BMP280;9205;52.032;4.314;2022-09-13T02:04:05;100944.34;;;21.50
18161;BMP280;9205;52.032;4.314;2022-09-13T02:06:40;100938.44;;;21.48
18161;BMP280;9205;52.032;4.314;2022-09-13T02:09:15;100939.34;;;21.47
18161;BMP280;9205;52.032;4.314;2022-09-13T02:11:49;100941.75;;;21.50
18161;BMP280;9205;52.032;4.314;2022-09-13T02:14:21;100940.91;;;21.50
18161;BMP280;9205;52.032;4.314;2022-09-13T02:16:57;100952.09;;;21.50
18161;BMP280;9205;52.032;4.314;2022-09-13T02:19:35;100943.50;;;21.50
18161;BMP280;9205;52.032;4.314;2022-09-13T02:22:07;100943.59;;;21.48
18161;BMP280;9205;52.032;4.314;2022-09-13T02:24:42;100936.78;;;21.47
18161;BMP280;9205;52.032;4.314;2022-09-13T02:27:18;100949.59;;;21.49
18161;BMP280;9205;52.032;4.314;2022-09-13T02:29:50;100949.69;;;21.47
18161;BMP280;9205;52.032;4.314;2022-09-13T02:32:24;100939.25;;;21.49
18161;BMP280;9205;52.032;4.314;2022-09-13T02:35:03;100939.97;;;21.51
18161;BMP280;9205;52.032;4.314;2022-09-13T02:37:35;100939.88;;;21.52
18161;BMP280;9205;52.032;4.314;2022-09-13T02:40:10;100937.41;;;21.51
18161;BMP280;9205;52.032;4.314;2022-09-13T02:42:46;100940.72;;;21.53
18161;BMP280;9205;52.032;4.314;2022-09-13T02:45:20;100950.13;;;21.54
18161;BMP280;9205;52.032;4.314;2022-09-13T02:47:58;100938.06;;;21.54
18161;BMP280;9205;52.032;4.314;2022-09-13T02:50:39;100942.38;;;21.54
18161;BMP280;9205;52.032;4.314;2022-09-13T02:53:22;100945.81;;;21.54
18161;BMP280;9205;52.032;4.314;2022-09-13T02:56:02;100956.22;;;21.53
18161;BMP280;9205;52.032;4.314;2022-09-13T02:58:43;100964.06;;;21.51
18161;BMP280;9205;52.032;4.314;2022-09-13T03:01:12;100961.47;;;21.51
18161;BMP280;9205;52.032;4.314;2022-09-13T03:03:40;100955.59;;;21.49
18161;BMP280;9205;52.032;4.314;2022-09-13T03:06:10;100964.91;;;21.52
18161;BMP280;9205;52.032;4.314;2022-09-13T03:08:40;100946.94;;;21.50
18161;BMP280;9205;52.032;4.314;2022-09-13T03:11:22;100952.91;;;21.51
18161;BMP280;9205;52.032;4.314;2022-09-13T03:14:19;100952.09;;;21.50
18161;BMP280;9205;52.032;4.314;2022-09-13T03:17:13;100937.50;;;21.49
18161;BMP280;9205;52.032;4.314;2022-09-13T03:19:58;100945.25;;;21.49
18161;BMP280;9205;52.032;4.314;2022-09-13T03:23:17;100947.00;;;21.49
18161;BMP280;9205;52.032;4.314;2022-09-13T03:26:11;100949.81;;;21.46
18161;BMP280;9205;52.032;4.314;2022-09-13T03:28:57;100957.63;;;21.44
18161;BMP280;9205;52.032;4.314;2022-09-13T03:31:35;100959.41;;;21.44
18161;BMP280;9205;52.032;4.314;2022-09-13T03:34:11;100973.97;;;21.45
18161;BMP280;9205;52.032;4.314;2022-09-13T03:36:46;100969.75;;;21.44
18161;BMP280;9205;52.032;4.314;2022-09-13T03:39:28;100971.47;;;21.43
18161;BMP280;9205;52.032;4.314;2022-09-13T03:42:05;100971.47;;;21.43
18161;BMP280;9205;52.032;4.314;2022-09-13T03:44:37;100974.16;;;21.42
18161;BMP280;9205;52.032;4.314;2022-09-13T03:47:07;100971.69;;;21.40
18161;BMP280;9205;52.032;4.314;2022-09-13T03:49:38;100969.22;;;21.39
18161;BMP280;9205;52.032;4.314;2022-09-13T03:52:05;100972.72;;;21.38
18161;BMP280;9205;52.032;4.314;2022-09-13T03:54:37;100968.53;;;21.35
18161;BMP280;9205;52.032;4.314;2022-09-13T03:57:15;100964.34;;;21.34
18161;BMP280;9205;52.032;4.314;2022-09-13T03:59:47;100967.91;;;21.32
18161;BMP280;9205;52.032;4.314;2022-09-13T04:02:15;100962.13;;;21.28
18161;BMP280;9205;52.032;4.314;2022-09-13T04:04:44;100964.81;;;21.27
18161;BMP280;9205;52.032;4.314;2022-09-13T04:07:14;100962.31;;;21.26
18161;BMP280;9205;52.032;4.314;2022-09-13T04:09:43;100965.94;;;21.23
18161;BMP280;9205;52.032;4.314;2022-09-13T04:12:11;100963.53;;;21.20
18161;BMP280;9205;52.032;4.314;2022-09-13T04:14:39;100969.72;;;21.18
18161;BMP280;9205;52.032;4.314;2022-09-13T04:17:07;100964.75;;;21.15
18161;BMP280;9205;52.032;4.314;2022-09-13T04:19:35;100974.16;;;21.16
18161;BMP280;9205;52.032;4.314;2022-09-13T04:22:02;100980.25;;;21.15
18161;BMP280;9205;52.032;4.314;2022-09-13T04:24:30;100974.16;;;21.16
18161;BMP280;9205;52.032;4.314;2022-09-13T04:27:00;100976.72;;;21.16
18161;BMP280;9205;52.032;4.314;2022-09-13T04:29:27;100989.66;;;21.16
18161;BMP280;9205;52.032;4.314;2022-09-13T04:31:58;100987.06;;;21.16
18161;BMP280;9205;52.032;4.314;2022-09-13T04:34:26;100978.56;;;21.14
18161;BMP280;9205;52.032;4.314;2022-09-13T04:36:53;100983.66;;;21.15
18161;BMP280;9205;52.032;4.314;2022-09-13T04:39:21;100990.41;;;21.18
18161;BMP280;9205;52.032;4.314;2022-09-13T04:41:50;100989.47;;;21.19
18161;BMP280;9205;52.032;4.314;2022-09-13T04:44:21;100991.13;;;21.20
18161;BMP280;9205;52.032;4.314;2022-09-13T04:46:49;100984.09;;;21.22
18161;BMP280;9205;52.032;4.314;2022-09-13T04:49:17;100995.97;;;21.24
18161;BMP280;9205;52.032;4.314;2022-09-13T04:51:45;100995.06;;;21.25
18161;BMP280;9205;52.032;4.314;2022-09-13T04:54:13;100988.16;;;21.26
18161;BMP280;9205;52.032;4.314;2022-09-13T04:56:40;100990.63;;;21.27
18161;BMP280;9205;52.032;4.314;2022-09-13T04:59:07;100993.13;;;21.28
18161;BMP280;9205;52.032;4.314;2022-09-13T05:01:37;100987.03;;;21.29
18161;BMP280;9205;52.032;4.314;2022-09-13T05:04:06;100989.44;;;21.32
18161;BMP280;9205;52.032;4.314;2022-09-13T05:06:34;100999.66;;;21.34
18161;BMP280;9205;52.032;4.314;2022-09-13T05:09:02;100992.75;;;21.34
18161;BMP280;9205;52.032;4.314;2022-09-13T05:11:30;100990.16;;;21.34
18161;BMP280;9205;52.032;4.314;2022-09-13T05:13:59;100999.56;;;21.35
18161;BMP280;9205;52.032;4.314;2022-09-13T05:16:29;101005.56;;;21.36
18161;BMP280;9205;52.032;4.314;2022-09-13T05:18:59;100999.56;;;21.35
18161;BMP280;9205;52.032;4.314;2022-09-13T05:21:27;101001.22;;;21.36
18161;BMP280;9205;52.032;4.314;2022-09-13T05:23:56;101000.50;;;21.34
18161;BMP280;9205;52.032;4.314;2022-09-13T05:26:25;100995.34;;;21.34
18161;BMP280;9205;52.032;4.314;2022-09-13T05:28:54;100997.19;;;21.32
18161;BMP280;9205;52.032;4.314;2022-09-13T05:31:24;100999.88;;;21.31
18161;BMP280;9205;52.032;4.314;2022-09-13T05:33:55;101005.22;;;21.28
18161;BMP280;9205;52.032;4.314;2022-09-13T05:36:25;101002.81;;;21.25
18161;BMP280;9205;52.032;4.314;2022-09-13T05:38:53;101010.66;;;21.24
18161;BMP280;9205;52.032;4.314;2022-09-13T05:41:20;101009.94;;;21.22
18161;BMP280;9205;52.032;4.314;2022-09-13T05:43:48;101013.25;;;21.24
18161;BMP280;9205;52.032;4.314;2022-09-13T05:46:17;101015.03;;;21.23
18161;BMP280;9205;52.032;4.314;2022-09-13T05:48:46;101019.34;;;21.23
18161;BMP280;9205;52.032;4.314;2022-09-13T05:51:16;101013.53;;;21.19
18161;BMP280;9205;52.032;4.314;2022-09-13T05:53:48;101010.94;;;21.19
18161;BMP280;9205;52.032;4.314;2022-09-13T05:56:20;101010.94;;;21.19
18161;BMP280;9205;52.032;4.314;2022-09-13T05:58:50;101016.97;;;21.20
18161;BMP280;9205;52.032;4.314;2022-09-13T06:01:21;101020.53;;;21.17
18161;BMP280;9205;52.032;4.314;2022-09-13T06:03:49;101015.47;;;21.16
18161;BMP280;9205;52.032;4.314;2022-09-13T06:06:18;101030.88;;;21.17
18161;BMP280;9205;52.032;4.314;2022-09-13T06:08:50;101030.88;;;21.17
18161;BMP280;9205;52.032;4.314;2022-09-13T06:11:18;101027.31;;;21.20
18161;BMP280;9205;52.032;4.314;2022-09-13T06:13:45;101020.38;;;21.20
18161;BMP280;9205;52.032;4.314;2022-09-13T06:16:16;101032.09;;;21.26
18161;BMP280;9205;52.032;4.314;2022-09-13T06:18:44;101034.28;;;21.31
18161;BMP280;9205;52.032;4.314;2022-09-13T06:21:15;101033.13;;;21.35
18161;BMP280;9205;52.032;4.314;2022-09-13T06:23:43;101033.72;;;21.40
18161;BMP280;9205;52.032;4.314;2022-09-13T06:26:14;101034.34;;;21.44
18161;BMP280;9205;52.032;4.314;2022-09-13T06:28:46;101022.06;;;21.47
18161;BMP280;9205;52.032;4.314;2022-09-13T06:31:15;101026.00;;;21.53
18161;BMP280;9205;52.032;4.314;2022-09-13T06:33:43;101025.94;;;21.54
18161;BMP280;9205;52.032;4.314;2022-09-13T06:36:14;101025.66;;;21.59
18161;BMP280;9205;52.032;4.314;2022-09-13T06:38:43;101025.53;;;21.60
18161;BMP280;9205;52.032;4.314;2022-09-13T06:41:14;101026.81;;;21.67
18161;BMP280;9205;52.032;4.314;2022-09-13T06:43:43;101029.22;;;21.70
18161;BMP280;9205;52.032;4.314;2022-09-13T06:46:13;101017.53;;;21.77
18161;BMP280;9205;52.032;4.314;2022-09-13T06:48:45;101017.38;;;21.80
18161;BMP280;9205;52.032;4.314;2022-09-13T06:51:17;101017.16;;;21.83
18161;BMP280;9205;52.032;4.314;2022-09-13T06:53:46;101022.13;;;21.86
18161;BMP280;9205;52.032;4.314;2022-09-13T06:56:24;101012.59;;;21.87
18161;BMP280;9205;52.032;4.314;2022-09-13T06:58:58;101010.47;;;21.93
18161;BMP280;9205;52.032;4.314;2022-09-13T07:01:30;101016.16;;;21.98
18161;BMP280;9205;52.032;4.314;2022-09-13T07:04:00;101021.66;;;22.06
18161;BMP280;9205;52.032;4.314;2022-09-13T07:06:29;101025.81;;;22.08
18161;BMP280;9205;52.032;4.314;2022-09-13T07:09:00;101023.00;;;22.11
18161;BMP280;9205;52.032;4.314;2022-09-13T07:11:32;101022.19;;;22.11
18161;BMP280;9205;52.032;4.314;2022-09-13T07:14:03;101022.91;;;22.13
18161;BMP280;9205;52.032;4.314;2022-09-13T07:16:37;101020.13;;;22.16
18161;BMP280;9205;52.032;4.314;2022-09-13T07:19:10;101026.84;;;22.18
18161;BMP280;9205;52.032;4.314;2022-09-13T07:21:38;101032.75;;;22.20
18161;BMP280;9205;52.032;4.314;2022-09-13T07:24:05;101036.09;;;22.22
18161;BMP280;9205;52.032;4.314;2022-09-13T07:26:34;101039.38;;;22.24
18161;BMP280;9205;52.032;4.314;2022-09-13T07:29:05;101044.25;;;22.29
18161;BMP280;9205;52.032;4.314;2022-09-13T07:31:40;101043.34;;;22.30
18161;BMP280;9205;52.032;4.314;2022-09-13T07:34:11;101043.16;;;22.33
18161;BMP280;9205;52.032;4.314;2022-09-13T07:36:39;101043.91;;;22.35
18161;BMP280;9205;52.032;4.314;2022-09-13T07:39:07;101044.22;;;22.30
18161;BMP280;9205;52.032;4.314;2022-09-13T07:41:38;101039.06;;;22.29
18161;BMP280;9205;52.032;4.314;2022-09-13T07:44:09;101043.44;;;22.28
18161;BMP280;9205;52.032;4.314;2022-09-13T07:46:42;101045.28;;;22.26
18161;BMP280;9205;52.032;4.314;2022-09-13T07:49:11;101038.44;;;22.25
18161;BMP280;9205;52.032;4.314;2022-09-13T07:51:41;101048.91;;;22.24
18161;BMP280;9205;52.032;4.314;2022-09-13T07:54:17;101042.69;;;22.26
18161;BMP280;9205;52.032;4.314;2022-09-13T07:56:51;101044.84;;;22.34
18161;BMP280;9205;52.032;4.314;2022-09-13T07:59:19;101040.59;;;22.33
18161;BMP280;9205;52.032;4.314;2022-09-13T08:01:48;101047.31;;;22.35
18161;BMP280;9205;52.032;4.314;2022-09-13T08:04:25;101050.94;;;22.33
18161;BMP280;9205;52.032;4.314;2022-09-13T08:06:52;101048.03;;;22.37
18161;BMP280;9205;52.032;4.314;2022-09-13T08:09:20;101049.78;;;22.37
18161;BMP280;9205;52.032;4.314;2022-09-13T08:11:51;101050.72;;;22.36
18161;BMP280;9205;52.032;4.314;2022-09-13T08:14:22;101060.56;;;22.43
18161;BMP280;9205;52.032;4.314;2022-09-13T08:16:53;101062.84;;;22.48
18161;BMP280;9205;52.032;4.314;2022-09-13T08:19:27;101065.75;;;22.56
18161;BMP280;9205;52.032;4.314;2022-09-13T08:21:54;101061.81;;;22.63
18161;BMP280;9205;52.032;4.314;2022-09-13T08:24:22;101056.66;;;22.63
18161;BMP280;9205;52.032;4.314;2022-09-13T08:26:57;101058.94;;;22.67
18161;BMP280;9205;52.032;4.314;2022-09-13T08:29:26;101060.59;;;22.68
18161;BMP280;9205;52.032;4.314;2022-09-13T08:31:56;101064.22;;;22.66
18161;BMP280;9205;52.032;4.314;2022-09-13T08:34:24;101056.44;;;22.66
18161;BMP280;9205;52.032;4.314;2022-09-13T08:36:52;101065.66;;;22.70
18161;BMP280;9205;52.032;4.314;2022-09-13T08:39:25;101066.38;;;22.72
18161;BMP280;9205;52.032;4.314;2022-09-13T08:42:24;101072.81;;;22.79
18161;BMP280;9205;52.032;4.314;2022-09-13T08:44:58;101070.34;;;22.77
18161;BMP280;9205;52.032;4.314;2022-09-13T08:47:40;101080.06;;;22.74
18161;BMP280;9205;52.032;4.314;2022-09-13T08:50:17;101078.19;;;22.76
18161;BMP280;9205;52.032;4.314;2022-09-13T08:52:55;101076.31;;;22.78
18161;BMP280;9205;52.032;4.314;2022-09-13T08:55:55;101085.56;;;22.82
18161;BMP280;9205;52.032;4.314;2022-09-13T08:58:48;101076.53;;;22.87
18161;BMP280;9205;52.032;4.314;2022-09-13T09:01:47;101077.38;;;22.88
18161;BMP280;9205;52.032;4.314;2022-09-13T09:04:35;101081.19;;;22.94
18161;BMP280;9205;52.032;4.314;2022-09-13T09:07:10;101079.41;;;22.95
18161;BMP280;9205;52.032;4.314;2022-09-13T09:09:46;101082.00;;;22.95
18161;BMP280;9205;52.032;4.314;2022-09-13T09:12:28;101080.88;;;22.99
18161;BMP280;9205;52.032;4.314;2022-09-13T09:15:16;101080.97;;;22.97
18161;BMP280;9205;52.032;4.314;2022-09-13T09:18:01;101075.59;;;23.00
18161;BMP280;9205;52.032;4.314;2022-09-13T09:20:40;101067.66;;;23.03
18161;BMP280;9205;52.032;4.314;2022-09-13T09:23:26;101072.72;;;23.05
18161;BMP280;9205;52.032;4.314;2022-09-13T09:26:26;101079.97;;;23.12
18161;BMP280;9205;52.032;4.314;2022-09-13T09:29:27;101077.03;;;23.17
18161;BMP280;9205;52.032;4.314;2022-09-13T09:32:11;101078.63;;;23.19
18161;BMP280;9205;52.032;4.314;2022-09-13T09:34:59;101078.19;;;23.25
18161;BMP280;9205;52.032;4.314;2022-09-13T09:37:32;101078.19;;;23.25
18161;BMP280;9205;52.032;4.314;2022-09-13T09:40:05;101081.72;;;23.24
18161;BMP280;9205;52.032;4.314;2022-09-13T09:42:41;101076.53;;;23.24
18161;BMP280;9205;52.032;4.314;2022-09-13T09:45:26;101077.75;;;23.31
18161;BMP280;9205;52.032;4.314;2022-09-13T09:48:05;101077.88;;;23.30
18161;BMP280;9205;52.032;4.314;2022-09-13T09:50:39;101080.53;;;23.28
18161;BMP280;9205;52.032;4.314;2022-09-13T09:53:13;101077.75;;;23.31
18161;BMP280;9205;52.032;4.314;2022-09-13T09:56:20;101080.63;;;23.39
18161;BMP280;9205;52.032;4.314;2022-09-13T09:58:50;101082.09;;;23.43
18161;BMP280;9205;52.032;4.314;2022-09-13T10:01:26;101075.41;;;23.52
18161;BMP280;9205;52.032;4.314;2022-09-13T10:04:05;101074.81;;;23.48
18161;BMP280;9205;52.032;4.314;2022-09-13T10:06:40;101062.56;;;23.50
18161;BMP280;9205;52.032;4.314;2022-09-13T10:09:18;101065.66;;;23.55
18161;BMP280;9205;52.032;4.314;2022-09-13T10:11:50;101067.09;;;23.59
18161;BMP280;9205;52.032;4.314;2022-09-13T10:14:38;101060.59;;;23.54
18161;BMP280;9205;52.032;4.314;2022-09-13T10:17:24;101064.44;;;23.48
18161;BMP280;9205;52.032;4.314;2022-09-13T10:19:58;101058.03;;;23.41
18161;BMP280;9205;52.032;4.314;2022-09-13T10:22:28;101060.06;;;23.49
18161;BMP280;9205;52.032;4.314;2022-09-13T10:25:16;101057.88;;;23.55
18161;BMP280;9205;52.032;4.314;2022-09-13T10:27:51;101048.88;;;23.48
18161;BMP280;9205;52.032;4.314;2022-09-13T10:30:36;101050.75;;;23.46
18161;BMP280;9205;52.032;4.314;2022-09-13T10:33:05;101041.44;;;23.44
18161;BMP280;9205;52.032;4.314;2022-09-13T10:35:40;101040.50;;;23.45
18161;BMP280;9205;52.032;4.314;2022-09-13T10:38:33;101047.69;;;23.29
18161;BMP280;9205;52.032;4.314;2022-09-13T10:41:06;101042.63;;;23.27
18161;BMP280;9205;52.032;4.314;2022-09-13T10:43:37;101062.19;;;23.31
18161;BMP280;9205;52.032;4.314;2022-09-13T10:46:11;101057.84;;;23.32
18161;BMP280;9205;52.032;4.314;2022-09-13T10:48:49;101044.56;;;23.36
18161;BMP280;9205;52.032;4.314;2022-09-13T10:51:33;101048.47;;;23.42
18161;BMP280;9205;52.032;4.314;2022-09-13T10:54:17;101048.28;;;23.45
18161;BMP280;9205;52.032;4.314;2022-09-13T10:56:47;101060.31;;;23.46
18161;BMP280;9205;52.032;4.314;2022-09-13T10:59:26;101056.44;;;23.51
18161;BMP280;9205;52.032;4.314;2022-09-13T11:02:38;101055.94;;;23.46
18161;BMP280;9205;52.032;4.314;2022-09-13T11:05:21;101050.13;;;23.43
18161;BMP280;9205;52.032;4.314;2022-09-13T11:08:20;101045.63;;;23.57
18161;BMP280;9205;52.032;4.314;2022-09-13T11:11:06;101057.94;;;23.66
18161;BMP280;9205;52.032;4.314;2022-09-13T11:13:55;101051.91;;;23.78
18161;BMP280;9205;52.032;4.314;2022-09-13T11:16:43;101045.22;;;24.21
18161;BMP280;9205;52.032;4.314;2022-09-13T11:20:01;101038.03;;;25.02
18161;BMP280;9205;52.032;4.314;2022-09-13T11:22:57;101034.97;;;25.08
18161;BMP280;9205;52.032;4.314;2022-09-13T11:25:53;101040.38;;;25.38
18161;BMP280;9205;52.032;4.314;2022-09-13T11:28:36;101044.66;;;25.81
18161;BMP280;9205;52.032;4.314;2022-09-13T11:31:33;101044.41;;;26.15
18161;BMP280;9205;52.032;4.314;2022-09-13T11:34:30;101046.00;;;26.27
18161;BMP280;9205;52.032;4.314;2022-09-13T11:37:26;101049.75;;;26.34
18161;BMP280;9205;52.032;4.314;2022-09-13T11:40:17;101049.44;;;26.48
18161;BMP280;9205;52.032;4.314;2022-09-13T11:43:00;101047.09;;;26.45
18161;BMP280;9205;52.032;4.314;2022-09-13T11:45:40;101043.28;;;26.49
18161;BMP280;9205;52.032;4.314;2022-09-13T11:48:42;101050.31;;;26.38
18161;BMP280;9205;52.032;4.314;2022-09-13T11:51:23;101035.31;;;25.90
18161;BMP280;9205;52.032;4.314;2022-09-13T11:54:23;101049.94;;;25.48
18161;BMP280;9205;52.032;4.314;2022-09-13T11:57:11;101044.31;;;25.22
18161;BMP280;9205;52.032;4.314;2022-09-13T11:59:50;101050.81;;;25.05
18161;BMP280;9205;52.032;4.314;2022-09-13T12:02:28;101047.25;;;24.95
18161;BMP280;9205;52.032;4.314;2022-09-13T12:05:00;101043.59;;;24.98
18161;BMP280;9205;52.032;4.314;2022-09-13T12:07:37;101055.03;;;25.06
18161;BMP280;9205;52.032;4.314;2022-09-13T12:10:17;101050.81;;;25.16
18161;BMP280;9205;52.032;4.314;2022-09-13T12:12:49;101051.53;;;25.18
18161;BMP280;9205;52.032;4.314;2022-09-13T12:15:28;101050.69;;;25.18
18161;BMP280;9205;52.032;4.314;2022-09-13T12:18:06;101051.53;;;25.18
18161;BMP280;9205;52.032;4.314;2022-09-13T12:20:41;101050.81;;;25.27
18161;BMP280;9205;52.032;4.314;2022-09-13T12:23:15;101058.63;;;25.27
18161;BMP280;9205;52.032;4.314;2022-09-13T12:25:55;101047.16;;;25.19
18161;BMP280;9205;52.032;4.314;2022-09-13T12:28:30;101045.00;;;24.91
18161;BMP280;9205;52.032;4.314;2022-09-13T12:31:04;101041.81;;;24.65
18161;BMP280;9205;52.032;4.314;2022-09-13T12:33:41;101046.53;;;24.60
18161;BMP280;9205;52.032;4.314;2022-09-13T12:37:01;101040.03;;;24.66
18161;BMP280;9205;52.032;4.314;2022-09-13T12:40:04;101040.75;;;24.68
18161;BMP280;9205;52.032;4.314;2022-09-13T12:43:10;101040.16;;;24.75
18161;BMP280;9205;52.032;4.314;2022-09-13T12:46:20;101029.53;;;24.78
18161;BMP280;9205;52.032;4.314;2022-09-13T12:49:32;101030.84;;;24.62
18161;BMP280;9205;52.032;4.314;2022-09-13T12:52:38;101028.72;;;24.67
18161;BMP280;9205;52.032;4.314;2022-09-13T12:55:40;101023.38;;;24.47
18161;BMP280;9205;52.032;4.314;2022-09-13T13:01:20;101034.69;;;24.46
18161;BMP280;9205;52.032;4.314;2022-09-13T13:03:53;101021.03;;;24.44
18161;BMP280;9205;52.032;4.314;2022-09-13T13:06:32;101029.00;;;24.41
18161;BMP280;9205;52.032;4.314;2022-09-13T13:09:05;101041.78;;;24.44
18161;BMP280;9205;52.032;4.314;2022-09-13T13:11:57;101043.25;;;24.35
18161;BMP280;9205;52.032;4.314;2022-09-13T13:14:41;101044.78;;;24.38
18161;BMP280;9205;52.032;4.314;2022-09-13T13:17:51;101046.00;;;24.45
18161;BMP280;9205;52.032;4.314;2022-09-13T13:20:45;101052.59;;;24.38
18161;BMP280;9205;52.032;4.314;2022-09-13T13:23:24;101032.50;;;24.29
18161;BMP280;9205;52.032;4.314;2022-09-13T13:26:09;101036.66;;;24.31
18161;BMP280;9205;52.032;4.314;2022-09-13T13:29:20;101045.72;;;24.26
18161;BMP280;9205;52.032;4.314;2022-09-13T13:32:11;101032.69;;;24.04
18161;BMP280;9205;52.032;4.314;2022-09-13T13:34:47;101034.75;;;23.88
18161;BMP280;9205;52.032;4.314;2022-09-13T13:37:32;101050.41;;;23.86
18161;BMP280;9205;52.032;4.314;2022-09-13T13:40:40;101052.44;;;23.94
18161;BMP280;9205;52.032;4.314;2022-09-13T13:43:34;101048.84;;;24.07
18161;BMP280;9205;52.032;4.314;2022-09-13T13:46:28;101045.94;;;24.12
18161;BMP280;9205;52.032;4.314;2022-09-13T13:52:36;101044.13;;;24.12
18161;BMP280;9205;52.032;4.314;2022-09-13T13:55:40;101044.94;;;24.02
18161;BMP280;9205;52.032;4.314;2022-09-13T13:58:28;101055.97;;;23.93
18161;BMP280;9205;52.032;4.314;2022-09-13T14:01:00;101043.59;;;23.96
18161;BMP280;9205;52.032;4.314;2022-09-13T14:03:49;101045.16;;;23.99
18161;BMP280;9205;52.032;4.314;2022-09-13T14:06:27;101050.72;;;24.05
18161;BMP280;9205;52.032;4.314;2022-09-13T14:09:09;101059.50;;;24.15
18161;BMP280;9205;52.032;4.314;2022-09-13T14:11:56;101048.72;;;24.09
18161;BMP280;9205;52.032;4.314;2022-09-13T14:14:52;101043.53;;;24.09
18161;BMP280;9205;52.032;4.314;2022-09-13T14:18:14;101038.34;;;24.09
18161;BMP280;9205;52.032;4.314;2022-09-13T14:21:00;101041.13;;;23.95
18161;BMP280;9205;52.032;4.314;2022-09-13T14:23:31;101042.19;;;23.92
18161;BMP280;9205;52.032;4.314;2022-09-13T14:26:04;101036.16;;;23.92
18161;BMP280;9205;52.032;4.314;2022-09-13T14:28:32;101043.47;;;23.98
18161;BMP280;9205;52.032;4.314;2022-09-13T14:31:00;101041.41;;;24.03
18161;BMP280;9205;52.032;4.314;2022-09-13T14:33:31;101044.47;;;23.97
18161;BMP280;9205;52.032;4.314;2022-09-13T14:36:03;101052.06;;;23.87
18161;BMP280;9205;52.032;4.314;2022-09-13T14:38:33;101061.47;;;23.77
18161;BMP280;9205;52.032;4.314;2022-09-13T14:41:13;101063.13;;;23.66
18161;BMP280;9205;52.032;4.314;2022-09-13T14:43:42;101059.41;;;23.58
18161;BMP280;9205;52.032;4.314;2022-09-13T14:46:17;101063.78;;;23.57
18161;BMP280;9205;52.032;4.314;2022-09-13T14:48:51;101060.69;;;23.52
18161;BMP280;9205;52.032;4.314;2022-09-13T14:51:25;101060.38;;;23.44
18161;BMP280;9205;52.032;4.314;2022-09-13T14:54:10;101052.63;;;23.44
18161;BMP280;9205;52.032;4.314;2022-09-13T14:56:48;101048.38;;;23.43
18161;BMP280;9205;52.032;4.314;2022-09-13T14:59:26;101044.56;;;23.36
18161;BMP280;9205;52.032;4.314;2022-09-13T15:01:55;101059.72;;;23.30
18161;BMP280;9205;52.032;4.314;2022-09-13T15:04:38;101056.53;;;23.26
18161;BMP280;9205;52.032;4.314;2022-09-13T15:07:19;101056.72;;;23.23
18161;BMP280;9205;52.032;4.314;2022-09-13T15:09:47;101050.44;;;23.15
18161;BMP280;9205;52.032;4.314;2022-09-13T15:12:26;101042.34;;;23.07
18161;BMP280;9205;52.032;4.314;2022-09-13T15:15:37;101053.19;;;22.99
18161;BMP280;9205;52.032;4.314;2022-09-13T15:18:24;101051.78;;;22.95
18161;BMP280;9205;52.032;4.314;2022-09-13T15:20:54;101051.03;;;22.93
18161;BMP280;9205;52.032;4.314;2022-09-13T15:23:26;101053.63;;;22.93
18161;BMP280;9205;52.032;4.314;2022-09-13T15:25:57;101050.75;;;22.86
18161;BMP280;9205;52.032;4.314;2022-09-13T15:28:33;101047.41;;;22.84
18161;BMP280;9205;52.032;4.314;2022-09-13T15:31:40;101043.09;;;22.84